Time;durP1;ratioP1;P1;durP2;ratioP2;P2;SDS_P1;SDS_P2;PMS_P1;PMS_P2;Temp;Humidity;BMP_temperature;BMP_pressure;BME280_temperature;BME280_humidity;BME280_pressure;Samples;Min_cycle;Max_cycle;Signal;HPM_P1;HPM_P2
2021/11/18 00:00:15;;;;;;;;;;;;;;;;;;5056710;28;20008;-78
2021/11/18 00:02:41;;;;;;;;;;;;;;;;;;5056057;28;20020;-78
2021/11/18 00:05:12;;;;;;;;;;;;;;;;;;5055466;28;20363;-78
2021/11/18 00:07:40;;;;;;;;;;;;;;;;;;5054740;28;19913;-78
2021/11/18 00:10:05;;;;;;;;;;;;;;;;;;5055575;28;20258;-78
2021/11/18 00:12:31;;;;;;;;;;;;;;;;;;5055739;28;19913;-78
2021/11/18 00:14:56;;;;;;;;;;;;;;;;;;5056228;28;20348;-78
2021/11/18 00:17:21;;;;;;;;;;;;;;;;;;5055456;28;20411;-78
2021/11/18 00:19:47;;;;;;;;;;;;;;;;;;5056208;28;19919;-78
2021/11/18 00:22:12;;;;;;;;;;;;;;;;;;5056044;28;19912;-78
2021/11/18 00:24:37;;;;;;;;;;;;;;;;;;5055516;28;19912;-78
2021/11/18 00:27:03;;;;;;;;;;;;;;;;;;5057303;28;20256;-78
2021/11/18 00:29:28;;;;;;;;;;;;;;;;;;5057726;28;20333;-78
2021/11/18 00:31:56;;;;;;;;;;;;;;;;;;5057335;28;19951;-78
2021/11/18 00:34:21;;;;;;;;;;;;;;;;;;5056880;28;19913;-78
2021/11/18 00:36:47;;;;;;;;;;;;;;;;;;5056889;28;19917;-78
2021/11/18 00:39:13;;;;;;;;;;;;;;;;;;5055063;28;19913;-78
2021/11/18 00:41:38;;;;;;;;;;;;;;;;;;5057518;28;19912;-79
2021/11/18 00:44:04;;;;;;;;;;;;;;;;;;5055217;28;19917;-78
2021/11/18 00:46:33;;;;;;;;;;;;;;;;;;5056902;28;19912;-78
2021/11/18 00:48:59;;;;;;;;;;;;;;;;;;5056406;28;19916;-78
2021/11/18 00:51:24;;;;;;;;;;;;;;;;;;5056528;28;19919;-78
2021/11/18 00:53:51;;;;;;;;;;;;;;;;;;5055434;28;20293;-78
2021/11/18 00:56:20;;;;;;;;;;;;;;;;;;5055271;28;20433;-78
2021/11/18 00:58:46;;;;;;;;;;;;;;;;;;5054323;28;20422;-78
2021/11/18 01:01:15;;;;;;;;;;;;;;;;;;5054912;28;20024;-79
2021/11/18 01:03:40;;;;;;;;;;;;;;;;;;5055966;28;19999;-78
2021/11/18 01:06:06;;;;;;;;;;;;;;;;;;5055462;28;19944;-78
2021/11/18 01:08:33;;;;;;;;;;;;;;;;;;5054736;28;19959;-78
2021/11/18 01:11:00;;;;;;;;;;;;;;;;;;5054217;28;20363;-78
2021/11/18 01:13:26;;;;;;;;;;;;;;;;;;5056696;28;20236;-78
2021/11/18 01:15:51;;;;;;;;;;;;;;;;;;5058047;28;19913;-78
2021/11/18 01:18:19;;;;;;;;;;;;;;;;;;5058149;28;19927;-78
2021/11/18 01:20:45;;;;;;;;;;;;;;;;;;5057907;28;20005;-78
2021/11/18 01:23:13;;;;;;;;;;;;;;;;;;5057637;28;19913;-78
2021/11/18 01:25:38;;;;;;;;;;;;;;;;;;5059488;28;19966;-78
2021/11/18 01:28:05;;;;;;;;;;;;;;;;;;5059752;28;20321;-78
2021/11/18 01:30:31;;;;;;;;;;;;;;;;;;5059407;28;20358;-78
2021/11/18 01:32:57;;;;;;;;;;;;;;;;;;5059158;28;19958;-78
2021/11/18 01:35:30;;;;;;;;;;;;;;;;;;5071931;28;19939;-78
2021/11/18 01:37:56;;;;;;;;;;;;;;;;;;5080581;28;19917;-78
2021/11/18 01:40:24;;;;;;;;;;;;;;;;;;5080806;28;19955;-78
2021/11/18 01:42:55;;;;;;;;;;;;;;;;;;5079685;28;19912;-78
2021/11/18 01:45:25;;;;;;;;;;;;;;;;;;5080353;28;19920;-78
2021/11/18 01:47:51;;;;;;;;;;;;;;;;;;5068604;28;19948;-78
2021/11/18 01:50:23;;;;;;;;;;;;;;;;;;5058640;28;19913;-78
2021/11/18 01:52:50;;;;;;;;;;;;;;;;;;5058415;28;19944;-78
2021/11/18 01:55:17;;;;;;;;;;;;;;;;;;5042292;28;19966;-78
2021/11/18 01:57:44;;;;;;;;;;;;;;;;;;5059382;28;20015;-78
2021/11/18 02:00:47;;;;;;;;;;;;;;;;;;5059259;28;20288;-78
2021/11/18 02:03:12;;;;;;;;;;;;;;;;;;5057116;28;19912;-78
2021/11/18 02:06:02;;;;;;;;;;;;;;;;;;5059363;28;19934;-78
2021/11/18 02:08:27;;;;;;;;;;;;;;;;;;5057862;28;19987;-78
2021/11/18 02:11:40;;;;;;;;;;;;;;;;;;5058256;28;19913;-78
2021/11/18 02:14:09;;;;;;;;;;;;;;;;;;5025207;28;19999;-78
2021/11/18 02:16:35;;;;;;;;;;;;;;;;;;5057772;28;20325;-78
2021/11/18 02:19:02;;;;;;;;;;;;;;;;;;5057861;28;19913;-78
2021/11/18 02:21:27;;;;;;;;;;;;;;;;;;5057302;28;20354;-78
2021/11/18 02:23:55;;;;;;;;;;;;;;;;;;5056867;28;19935;-78
2021/11/18 02:26:22;;;;;;;;;;;;;;;;;;5057368;28;20298;-78
2021/11/18 02:28:48;;;;;;;;;;;;;;;;;;5056866;28;20305;-78
2021/11/18 02:31:17;;;;;;;;;;;;;;;;;;5057455;28;19913;-78
2021/11/18 02:33:43;;;;;;;;;;;;;;;;;;5057605;28;19958;-78
2021/11/18 02:36:10;;;;;;;;;;;;;;;;;;5057790;28;19979;-78
2021/11/18 02:38:36;;;;;;;;;;;;;;;;;;5057727;28;20430;-78
2021/11/18 02:41:12;;;;;;;;;;;;;;;;;;5056987;28;20354;-78
2021/11/18 02:43:38;;;;;;;;;;;;;;;;;;5056642;28;19923;-78
2021/11/18 02:46:03;;;;;;;;;;;;;;;;;;5058707;28;19912;-78
2021/11/18 02:48:29;;;;;;;;;;;;;;;;;;5056748;28;19913;-78
2021/11/18 02:50:56;;;;;;;;;;;;;;;;;;5057047;28;19924;-78
2021/11/18 02:53:22;;;;;;;;;;;;;;;;;;5058306;28;19917;-78
2021/11/18 02:55:50;;;;;;;;;;;;;;;;;;5056981;28;19939;-78
2021/11/18 02:58:16;;;;;;;;;;;;;;;;;;5056452;28;19917;-78
2021/11/18 03:01:08;;;;;;;;;;;;;;;;;;5056555;28;19959;-78
2021/11/18 03:03:34;;;;;;;;;;;;;;;;;;5054652;28;19987;-78
2021/11/18 03:06:02;;;;;;;;;;;;;;;;;;5055935;28;20346;-78
2021/11/18 03:08:28;;;;;;;;;;;;;;;;;;5057385;28;19913;-78
2021/11/18 03:10:56;;;;;;;;;;;;;;;;;;5057742;28;19913;-78
2021/11/18 03:13:22;;;;;;;;;;;;;;;;;;5058728;28;19919;-78
2021/11/18 03:15:48;;;;;;;;;;;;;;;;;;5059750;28;19921;-78
2021/11/18 03:18:14;;;;;;;;;;;;;;;;;;5056248;28;19920;-77
2021/11/18 03:20:42;;;;;;;;;;;;;;;;;;5054990;28;19913;-78
2021/11/18 03:23:08;;;;;;;;;;;;;;;;;;5060161;28;20011;-77
2021/11/18 03:25:35;;;;;;;;;;;;;;;;;;5054838;28;20015;-78
2021/11/18 03:28:10;;;;;;;;;;;;;;;;;;5055851;28;19923;-78
2021/11/18 03:30:39;;;;;;;;;;;;;;;;;;5055330;28;19913;-78
2021/11/18 03:33:16;;;;;;;;;;;;;;;;;;5056473;28;19976;-78
2021/11/18 03:35:41;;;;;;;;;;;;;;;;;;5056080;28;20263;-78
2021/11/18 03:38:07;;;;;;;;;;;;;;;;;;5056655;28;19917;-78
2021/11/18 03:40:33;;;;;;;;;;;;;;;;;;5060294;28;19912;-78
2021/11/18 03:42:59;;;;;;;;;;;;;;;;;;5059822;28;19909;-78
2021/11/18 03:45:28;;;;;;;;;;;;;;;;;;5059021;28;19916;-78
2021/11/18 03:47:55;;;;;;;;;;;;;;;;;;5057781;28;19913;-78
2021/11/18 03:50:21;;;;;;;;;;;;;;;;;;5054448;28;19936;-77
2021/11/18 03:52:47;;;;;;;;;;;;;;;;;;5055315;28;19917;-78
2021/11/18 03:55:14;;;;;;;;;;;;;;;;;;5059291;28;20385;-78
2021/11/18 03:57:43;;;;;;;;;;;;;;;;;;5061042;28;19923;-78
2021/11/18 04:00:15;;;;;;;;;;;;;;;;;;5061016;28;19912;-79
2021/11/18 04:02:43;;;;;;;;;;;;;;;;;;5061470;28;19913;-78
2021/11/18 04:05:13;;;;;;;;;;;;;;;;;;5060476;28;19919;-78
2021/11/18 04:07:42;;;;;;;;;;;;;;;;;;5060997;28;19912;-78
2021/11/18 04:10:10;;;;;;;;;;;;;;;;;;5059902;28;19920;-78
2021/11/18 04:12:37;;;;;;;;;;;;;;;;;;5059165;28;19913;-78
2021/11/18 04:15:03;;;;;;;;;;;;;;;;;;5060896;28;19913;-78
2021/11/18 04:17:29;;;;;;;;;;;;;;;;;;5058957;28;20058;-78
2021/11/18 04:19:54;;;;;;;;;;;;;;;;;;5042711;28;20323;-78
2021/11/18 04:22:22;;;;;;;;;;;;;;;;;;5059020;28;19919;-78
2021/11/18 04:24:49;;;;;;;;;;;;;;;;;;5059263;28;19913;-78
2021/11/18 04:27:15;;;;;;;;;;;;;;;;;;5059806;28;19935;-78
2021/11/18 04:29:40;;;;;;;;;;;;;;;;;;5058241;28;19916;-78
2021/11/18 04:32:13;;;;;;;;;;;;;;;;;;5058644;28;19909;-78
2021/11/18 04:34:40;;;;;;;;;;;;;;;;;;5042072;28;20007;-78
2021/11/18 04:37:06;;;;;;;;;;;;;;;;;;5058668;28;19970;-78
2021/11/18 04:39:32;;;;;;;;;;;;;;;;;;5060548;28;19940;-78
2021/11/18 04:41:58;;;;;;;;;;;;;;;;;;5061028;28;19923;-78
2021/11/18 04:44:23;;;;;;;;;;;;;;;;;;5058887;28;20377;-78
2021/11/18 04:46:55;;;;;;;;;;;;;;;;;;5058816;28;19913;-78
2021/11/18 04:49:20;;;;;;;;;;;;;;;;;;5058516;28;19944;-78
2021/11/18 04:51:46;;;;;;;;;;;;;;;;;;5059262;28;19920;-79
2021/11/18 04:54:12;;;;;;;;;;;;;;;;;;5061709;28;19913;-78
2021/11/18 04:56:38;;;;;;;;;;;;;;;;;;5061501;28;19913;-78
2021/11/18 04:59:04;;;;;;;;;;;;;;;;;;5061938;28;19919;-78
2021/11/18 05:01:34;;;;;;;;;;;;;;;;;;5067719;28;19919;-78
2021/11/18 05:04:00;;;;;;;;;;;;;;;;;;5065025;28;19936;-78
2021/11/18 05:06:26;;;;;;;;;;;;;;;;;;5062200;28;19939;-78
2021/11/18 05:08:52;;;;;;;;;;;;;;;;;;5061725;28;19913;-78
2021/11/18 05:11:17;;;;;;;;;;;;;;;;;;5061844;28;20263;-78
2021/11/18 05:13:45;;;;;;;;;;;;;;;;;;5060523;28;19912;-78
2021/11/18 05:16:13;;;;;;;;;;;;;;;;;;5060326;28;19913;-78
2021/11/18 05:18:39;;;;;;;;;;;;;;;;;;5060135;28;19924;-78
2021/11/18 05:21:07;;;;;;;;;;;;;;;;;;5060044;28;20000;-78
2021/11/18 05:23:33;;;;;;;;;;;;;;;;;;5061537;28;19944;-78
2021/11/18 05:26:01;;;;;;;;;;;;;;;;;;5058724;28;19984;-78
2021/11/18 05:28:28;;;;;;;;;;;;;;;;;;5058662;28;19912;-78
2021/11/18 05:30:55;;;;;;;;;;;;;;;;;;5058013;28;19971;-78
2021/11/18 05:33:21;;;;;;;;;;;;;;;;;;5058402;28;19920;-78
2021/11/18 05:35:47;;;;;;;;;;;;;;;;;;5058415;28;20050;-78
2021/11/18 05:38:13;;;;;;;;;;;;;;;;;;5059035;28;19959;-78
2021/11/18 05:40:44;;;;;;;;;;;;;;;;;;5057730;28;19913;-78
2021/11/18 05:43:13;;;;;;;;;;;;;;;;;;5057587;28;19912;-78
2021/11/18 05:45:39;;;;;;;;;;;;;;;;;;5059024;28;19912;-78
2021/11/18 05:48:10;;;;;;;;;;;;;;;;;;5057484;28;19958;-78
2021/11/18 05:50:36;;;;;;;;;;;;;;;;;;5058915;28;19912;-78
2021/11/18 05:53:02;;;;;;;;;;;;;;;;;;5066540;28;20481;-79
2021/11/18 05:55:29;;;;;;;;;;;;;;;;;;5072107;28;19913;-78
2021/11/18 05:57:55;;;;;;;;;;;;;;;;;;5063932;28;19917;-79
2021/11/18 06:00:23;;;;;;;;;;;;;;;;;;5065437;28;19994;-78
2021/11/18 06:02:51;;;;;;;;;;;;;;;;;;5065578;28;19928;-78
2021/11/18 06:05:17;;;;;;;;;;;;;;;;;;5068307;28;19917;-78
2021/11/18 06:07:43;;;;;;;;;;;;;;;;;;5067892;28;19946;-78
2021/11/18 06:10:09;;;;;;;;;;;;;;;;;;5066507;28;19908;-79
2021/11/18 06:12:35;;;;;;;;;;;;;;;;;;5047751;28;19912;-78
2021/11/18 06:15:01;;;;;;;;;;;;;;;;;;5064916;28;19924;-78
2021/11/18 06:17:26;;;;;;;;;;;;;;;;;;5064680;28;20302;-79
2021/11/18 06:19:53;;;;;;;;;;;;;;;;;;5065676;28;19919;-78
2021/11/18 06:22:24;;;;;;;;;;;;;;;;;;5063174;28;19912;-78
2021/11/18 06:25:04;;;;;;;;;;;;;;;;;;5063760;28;19920;-79
2021/11/18 06:27:30;;;;;;;;;;;;;;;;;;5065340;28;19917;-78
2021/11/18 06:29:58;;;;;;;;;;;;;;;;;;5061839;28;19913;-78
2021/11/18 06:32:23;;;;;;;;;;;;;;;;;;5066731;28;19913;-79
2021/11/18 06:34:50;;;;;;;;;;;;;;;;;;5062847;28;20374;-79
2021/11/18 06:37:16;;;;;;;;;;;;;;;;;;5062334;28;19917;-78
2021/11/18 06:39:44;;;;;;;;;;;;;;;;;;5060696;28;20310;-78
2021/11/18 06:42:10;;;;;;;;;;;;;;;;;;5060522;28;19955;-78
2021/11/18 06:44:36;;;;;;;;;;;;;;;;;;5058993;28;19924;-78
2021/11/18 06:47:02;;;;;;;;;;;;;;;;;;5057717;28;20383;-78
2021/11/18 06:49:29;;;;;;;;;;;;;;;;;;5056243;28;19913;-78
2021/11/18 06:51:54;;;;;;;;;;;;;;;;;;5056871;28;19912;-78
2021/11/18 06:54:20;;;;;;;;;;;;;;;;;;5057310;28;19916;-78
2021/11/18 06:56:46;;;;;;;;;;;;;;;;;;5056710;28;19948;-78
2021/11/18 06:59:12;;;;;;;;;;;;;;;;;;5057567;28;19913;-78
2021/11/18 07:01:39;;;;;;;;;;;;;;;;;;5058046;28;20007;-77
2021/11/18 07:04:09;;;;;;;;;;;;;;;;;;5056690;28;19944;-78
2021/11/18 07:06:37;;;;;;;;;;;;;;;;;;5021509;28;19917;-78
2021/11/18 07:09:06;;;;;;;;;;;;;;;;;;5039163;28;19916;-78
2021/11/18 07:11:34;;;;;;;;;;;;;;;;;;5020097;28;19913;-78
2021/11/18 07:14:01;;;;;;;;;;;;;;;;;;5034654;28;20054;-77
2021/11/18 07:16:26;;;;;;;;;;;;;;;;;;5034495;28;20278;-77
2021/11/18 07:18:52;;;;;;;;;;;;;;;;;;5034273;28;20445;-77
2021/11/18 07:21:22;;;;;;;;;;;;;;;;;;5034249;28;20078;-78
2021/11/18 07:23:48;;;;;;;;;;;;;;;;;;5033957;28;20436;-77
2021/11/18 07:26:13;;;;;;;;;;;;;;;;;;5034017;28;19917;-76
2021/11/18 07:28:40;;;;;;;;;;;;;;;;;;5034314;28;19983;-77
2021/11/18 07:31:06;;;;;;;;;;;;;;;;;;5034057;28;19913;-77
2021/11/18 07:33:39;;;;;;;;;;;;;;;;;;5034148;28;19920;-78
2021/11/18 07:36:05;;;;;;;;;;;;;;;;;;5050215;28;19912;-79
2021/11/18 07:38:32;;;;;;;;;;;;;;;;;;5058074;28;19924;-77
2021/11/18 07:41:02;;;;;;;;;;;;;;;;;;5055411;28;19917;-77
2021/11/18 07:43:32;;;;;;;;;;;;;;;;;;5053289;28;19939;-77
2021/11/18 07:46:27;;;;;;;;;;;;;;;;;;5050140;28;19913;-77
2021/11/18 07:48:59;;;;;;;;;;;;;;;;;;5053688;28;20263;-77
2021/11/18 07:51:31;;;;;;;;;;;;;;;;;;5053534;28;20011;-77
2021/11/18 07:53:56;;;;;;;;;;;;;;;;;;5053318;28;20003;-77
2021/11/18 07:56:22;;;;;;;;;;;;;;;;;;5054674;28;19952;-77
2021/11/18 07:58:49;;;;;;;;;;;;;;;;;;5054160;28;19917;-77
2021/11/18 08:01:15;;;;;;;;;;;;;;;;;;5053568;28;19920;-77
2021/11/18 08:03:42;;;;;;;;;;;;;;;;;;5052213;28;20038;-77
2021/11/18 08:06:15;;;;;;;;;;;;;;;;;;5053880;28;19919;-78
2021/11/18 08:08:51;;;;;;;;;;;;;;;;;;5053411;28;20317;-77
2021/11/18 08:11:22;;;;;;;;;;;;;;;;;;5054126;28;19912;-77
2021/11/18 08:13:47;;;;;;;;;;;;;;;;;;5052876;28;19965;-77
2021/11/18 08:16:13;;;;;;;;;;;;;;;;;;5054511;28;20430;-80
2021/11/18 08:18:42;;;;;;;;;;;;;;;;;;5037961;28;20007;-78
2021/11/18 08:21:08;;;;;;;;;;;;;;;;;;5054710;28;20322;-78
2021/11/18 08:23:33;;;;;;;;;;;;;;;;;;5058081;28;19913;-78
2021/11/18 08:26:03;;;;;;;;;;;;;;;;;;5059153;28;19951;-77
2021/11/18 08:28:30;;;;;;;;;;;;;;;;;;5054896;28;19951;-78
2021/11/18 08:30:56;;;;;;;;;;;;;;;;;;5054867;28;20344;-78
2021/11/18 08:33:22;;;;;;;;;;;;;;;;;;5055635;28;19920;-78
2021/11/18 08:35:47;;;;;;;;;;;;;;;;;;5055455;28;19966;-78
2021/11/18 08:38:14;;;;;;;;;;;;;;;;;;5054613;28;19971;-77
2021/11/18 08:40:48;;;;;;;;;;;;;;;;;;5052916;28;19968;-77
2021/11/18 08:43:14;;;;;;;;;;;;;;;;;;5052628;28;19920;-76
2021/11/18 08:45:39;;;;;;;;;;;;;;;;;;5052550;28;19921;-77
2021/11/18 08:48:08;;;;;;;;;;;;;;;;;;5052475;28;20001;-77
2021/11/18 08:50:34;;;;;;;;;;;;;;;;;;5053548;28;20332;-77
2021/11/18 08:52:59;;;;;;;;;;;;;;;;;;5052733;28;19913;-77
2021/11/18 08:55:27;;;;;;;;;;;;;;;;;;5054253;28;19916;-77
2021/11/18 08:57:53;;;;;;;;;;;;;;;;;;5053839;28;20344;-77
2021/11/18 09:00:50;;;;;;;;;;;;;;;;;;5053125;28;19912;-77
2021/11/18 09:03:19;;;;;;;;;;;;;;;;;;5053561;28;19913;-77
2021/11/18 09:05:46;;;;;;;;;;;;;;;;;;5052254;28;20015;-76
2021/11/18 09:08:11;;;;;;;;;;;;;;;;;;5052220;28;19966;-77
2021/11/18 09:10:41;;;;;;;;;;;;;;;;;;5052304;28;20015;-76
2021/11/18 09:13:08;;;;;;;;;;;;;;;;;;5057830;28;20338;-77
2021/11/18 09:15:34;;;;;;;;;;;;;;;;;;5052233;28;20015;-77
2021/11/18 09:18:01;;;;;;;;;;;;;;;;;;5037337;28;19920;-77
2021/11/18 09:20:39;;;;;;;;;;;;;;;;;;5052424;28;19912;-77
2021/11/18 09:23:05;;;;;;;;;;;;;;;;;;5053200;28;19916;-78
2021/11/18 09:25:37;;;;;;;;;;;;;;;;;;5054290;28;19920;-78
2021/11/18 09:28:03;;;;;;;;;;;;;;;;;;5054978;28;19913;-79
2021/11/18 09:30:31;;;;;;;;;;;;;;;;;;5053896;28;20384;-77
2021/11/18 09:32:57;;;;;;;;;;;;;;;;;;5053844;28;19912;-77
2021/11/18 09:35:46;;;;;;;;;;;;;;;;;;5058217;28;19916;-77
2021/11/18 09:38:13;;;;;;;;;;;;;;;;;;5055320;28;20281;-76
2021/11/18 09:40:43;;;;;;;;;;;;;;;;;;5057009;28;20370;-76
2021/11/18 09:43:27;;;;;;;;;;;;;;;;;;5040433;28;19991;-77
2021/11/18 09:46:01;;;;;;;;;;;;;;;;;;5056963;28;20274;-77
2021/11/18 09:48:38;;;;;;;;;;;;;;;;;;5056895;28;19913;-77
2021/11/18 09:51:19;;;;;;;;;;;;;;;;;;5055522;28;19966;-77
2021/11/18 09:54:08;;;;;;;;;;;;;;;;;;5055145;28;19917;-77
2021/11/18 09:56:43;;;;;;;;;;;;;;;;;;5024984;28;19974;-77
2021/11/18 09:59:20;;;;;;;;;;;;;;;;;;5055536;28;20373;-77
2021/11/18 10:01:56;;;;;;;;;;;;;;;;;;5055547;28;19917;-77
2021/11/18 10:04:36;;;;;;;;;;;;;;;;;;5056521;28;19958;-77
2021/11/18 10:07:22;;;;;;;;;;;;;;;;;;5054376;28;19967;-77
2021/11/18 10:10:11;;;;;;;;;;;;;;;;;;5057268;28;20007;-77
2021/11/18 10:12:55;;;;;;;;;;;;;;;;;;5055513;28;19927;-77
2021/11/18 10:15:23;;;;;;;;;;;;;;;;;;5055229;28;19923;-78
2021/11/18 10:17:59;;;;;;;;;;;;;;;;;;5055336;28;20027;-77
2021/11/18 10:20:30;;;;;;;;;;;;;;;;;;5055091;28;19959;-77
2021/11/18 10:22:58;;;;;;;;;;;;;;;;;;5056695;28;20275;-77
2021/11/18 10:25:26;;;;;;;;;;;;;;;;;;5056067;28;19913;-76
2021/11/18 10:27:54;;;;;;;;;;;;;;;;;;5056253;28;19913;-77
2021/11/18 10:30:34;;;;;;;;;;;;;;;;;;5056228;28;19913;-77
2021/11/18 10:33:08;;;;;;;;;;;;;;;;;;5055142;28;19959;-77
2021/11/18 10:35:36;;;;;;;;;;;;;;;;;;5053876;28;20355;-76
2021/11/18 10:38:14;;;;;;;;;;;;;;;;;;5054676;28;19923;-77
2021/11/18 10:40:49;;;;;;;;;;;;;;;;;;5054503;28;20325;-76
2021/11/18 10:43:17;;;;;;;;;;;;;;;;;;5057571;28;20376;-78
2021/11/18 10:45:57;;;;;;;;;;;;;;;;;;5054736;28;19924;-78
2021/11/18 10:48:28;;;;;;;;;;;;;;;;;;5056429;28;19924;-76
2021/11/18 10:50:53;;;;;;;;;;;;;;;;;;5056337;28;19913;-77
2021/11/18 10:53:21;;;;;;;;;;;;;;;;;;5056091;28;19916;-77
2021/11/18 10:56:04;;;;;;;;;;;;;;;;;;5055172;28;19919;-77
2021/11/18 10:58:40;;;;;;;;;;;;;;;;;;5056944;28;19962;-78
2021/11/18 11:01:14;;;;;;;;;;;;;;;;;;5055034;28;19913;-77
2021/11/18 11:03:41;;;;;;;;;;;;;;;;;;5057381;28;19912;-77
2021/11/18 11:06:08;;;;;;;;;;;;;;;;;;5057544;28;19920;-77
2021/11/18 11:08:33;;;;;;;;;;;;;;;;;;5055272;28;19920;-77
2021/11/18 11:11:04;;;;;;;;;;;;;;;;;;5056137;28;19913;-77
2021/11/18 11:13:51;;;;;;;;;;;;;;;;;;5055526;28;20355;-76
2021/11/18 11:16:23;;;;;;;;;;;;;;;;;;5055557;28;20420;-77
2021/11/18 11:19:09;;;;;;;;;;;;;;;;;;5055280;28;19924;-78
2021/11/18 11:21:49;;;;;;;;;;;;;;;;;;5055396;28;20409;-76
2021/11/18 11:24:17;;;;;;;;;;;;;;;;;;5057057;28;19935;-79
2021/11/18 11:27:09;;;;;;;;;;;;;;;;;;5061895;28;19936;-78
2021/11/18 11:29:37;;;;;;;;;;;;;;;;;;5064328;28;19912;-78
2021/11/18 11:32:08;;;;;;;;;;;;;;;;;;5057324;28;20054;-77
2021/11/18 11:34:33;;;;;;;;;;;;;;;;;;5056216;28;19966;-77
2021/11/18 11:37:01;;;;;;;;;;;;;;;;;;5054423;28;20422;-77
2021/11/18 11:39:41;;;;;;;;;;;;;;;;;;5056918;28;19912;-80
2021/11/18 11:42:21;;;;;;;;;;;;;;;;;;5061261;28;19912;-77
2021/11/18 11:45:01;;;;;;;;;;;;;;;;;;5055763;28;19916;-79
2021/11/18 11:47:39;;;;;;;;;;;;;;;;;;5058461;28;19912;-78
2021/11/18 11:50:23;;;;;;;;;;;;;;;;;;5056633;28;19913;-79
2021/11/18 11:53:08;;;;;;;;;;;;;;;;;;5054472;28;19920;-79
2021/11/18 11:55:45;;;;;;;;;;;;;;;;;;5048181;28;19920;-77
2021/11/18 11:58:24;;;;;;;;;;;;;;;;;;5034290;28;20036;-78
2021/11/18 12:00:55;;;;;;;;;;;;;;;;;;5034502;28;19912;-78
2021/11/18 12:03:20;;;;;;;;;;;;;;;;;;5034664;28;19944;-77
2021/11/18 12:05:46;;;;;;;;;;;;;;;;;;5043269;28;19970;-78
2021/11/18 12:08:18;;;;;;;;;;;;;;;;;;5054281;28;20066;-77
2021/11/18 12:10:53;;;;;;;;;;;;;;;;;;5054356;28;19919;-77
2021/11/18 12:13:38;;;;;;;;;;;;;;;;;;5054550;28;20320;-78
2021/11/18 12:16:24;;;;;;;;;;;;;;;;;;5054061;28;19912;-77
2021/11/18 12:18:52;;;;;;;;;;;;;;;;;;5053603;28;19917;-77
2021/11/18 12:21:18;;;;;;;;;;;;;;;;;;5052874;28;19909;-76
2021/11/18 12:23:56;;;;;;;;;;;;;;;;;;5054164;28;19913;-76
2021/11/18 12:26:21;;;;;;;;;;;;;;;;;;5054063;28;20011;-76
2021/11/18 12:29:13;;;;;;;;;;;;;;;;;;5053823;28;19963;-77
2021/11/18 12:31:56;;;;;;;;;;;;;;;;;;5051636;28;19942;-77
2021/11/18 12:34:42;;;;;;;;;;;;;;;;;;5041013;28;20440;-75
2021/11/18 12:37:37;;;;;;;;;;;;;;;;;;5033600;28;20332;-76
2021/11/18 12:40:06;;;;;;;;;;;;;;;;;;5024919;28;19912;-75
2021/11/18 12:42:37;;;;;;;;;;;;;;;;;;5034037;28;20309;-75
2021/11/18 12:45:06;;;;;;;;;;;;;;;;;;5033728;28;20004;-76
2021/11/18 12:47:54;;;;;;;;;;;;;;;;;;5033661;28;20043;-76
2021/11/18 12:50:55;;;;;;;;;;;;;;;;;;5033554;28;19913;-76
2021/11/18 12:53:26;;;;;;;;;;;;;;;;;;4991897;28;20418;-76
2021/11/18 12:55:51;;;;;;;;;;;;;;;;;;5026621;28;19920;-76
2021/11/18 12:58:26;;;;;;;;;;;;;;;;;;5033594;28;20375;-76
2021/11/18 13:00:54;;;;;;;;;;;;;;;;;;5033837;28;19924;-76
2021/11/18 13:03:38;;;;;;;;;;;;;;;;;;5037101;28;19908;-75
2021/11/18 13:06:04;;;;;;;;;;;;;;;;;;5052206;28;20358;-76
2021/11/18 13:08:41;;;;;;;;;;;;;;;;;;5054437;28;20426;-76
2021/11/18 13:11:25;;;;;;;;;;;;;;;;;;5057755;28;19917;-76
2021/11/18 13:14:08;;;;;;;;;;;;;;;;;;5057537;28;19913;-75
2021/11/18 13:16:46;;;;;;;;;;;;;;;;;;5057695;28;19920;-76
2021/11/18 13:19:23;;;;;;;;;;;;;;;;;;5057521;28;20278;-75
2021/11/18 13:21:53;;;;;;;;;;;;;;;;;;5056032;28;20438;-76
2021/11/18 13:24:37;;;;;;;;;;;;;;;;;;5057259;28;20325;-75
2021/11/18 13:27:03;;;;;;;;;;;;;;;;;;5056061;28;19912;-76
2021/11/18 13:29:30;;;;;;;;;;;;;;;;;;5057444;28;19928;-75
2021/11/18 13:31:55;;;;;;;;;;;;;;;;;;5057395;28;19912;-76
2021/11/18 13:34:30;;;;;;;;;;;;;;;;;;5057628;28;19958;-76
2021/11/18 13:36:58;;;;;;;;;;;;;;;;;;5056865;28;19912;-75
2021/11/18 13:39:39;;;;;;;;;;;;;;;;;;5056005;28;20400;-75
2021/11/18 13:42:16;;;;;;;;;;;;;;;;;;5057269;28;19913;-75
2021/11/18 13:44:42;;;;;;;;;;;;;;;;;;5056546;28;19920;-76
2021/11/18 13:47:28;;;;;;;;;;;;;;;;;;5058282;28;19965;-75
2021/11/18 13:49:58;;;;;;;;;;;;;;;;;;5056268;28;19912;-75
2021/11/18 13:52:30;;;;;;;;;;;;;;;;;;5056460;28;19991;-75
2021/11/18 13:55:00;;;;;;;;;;;;;;;;;;5056804;28;19913;-75
2021/11/18 13:57:29;;;;;;;;;;;;;;;;;;5056747;28;20260;-75
2021/11/18 13:59:56;;;;;;;;;;;;;;;;;;5056745;28;19909;-75
2021/11/18 14:02:23;;;;;;;;;;;;;;;;;;5056573;28;19995;-75
2021/11/18 14:04:56;;;;;;;;;;;;;;;;;;5055905;28;20007;-75
2021/11/18 14:07:22;;;;;;;;;;;;;;;;;;5056666;28;19913;-75
2021/11/18 14:09:51;;;;;;;;;;;;;;;;;;5056477;28;19912;-75
2021/11/18 14:12:16;;;;;;;;;;;;;;;;;;5056621;28;19919;-75
2021/11/18 14:14:44;;;;;;;;;;;;;;;;;;5056475;28;19912;-75
2021/11/18 14:17:12;;;;;;;;;;;;;;;;;;5056633;28;19920;-75
2021/11/18 14:19:39;;;;;;;;;;;;;;;;;;5056132;28;20262;-75
2021/11/18 14:22:09;;;;;;;;;;;;;;;;;;5056032;28;19913;-75
2021/11/18 14:24:45;;;;;;;;;;;;;;;;;;5056297;28;19919;-75
2021/11/18 14:27:10;;;;;;;;;;;;;;;;;;5055827;28;19995;-75
2021/11/18 14:29:45;;;;;;;;;;;;;;;;;;5056436;28;20020;-75
2021/11/18 14:32:19;;;;;;;;;;;;;;;;;;5056092;28;19967;-75
2021/11/18 14:34:47;;;;;;;;;;;;;;;;;;5055974;28;19913;-75
2021/11/18 14:37:25;;;;;;;;;;;;;;;;;;5055834;28;20011;-75
2021/11/18 14:39:52;;;;;;;;;;;;;;;;;;5055830;28;19990;-75
2021/11/18 14:42:22;;;;;;;;;;;;;;;;;;5056041;28;19913;-75
2021/11/18 14:44:56;;;;;;;;;;;;;;;;;;5055858;28;19917;-76
2021/11/18 14:47:33;;;;;;;;;;;;;;;;;;5055872;28;19913;-75
2021/11/18 14:50:16;;;;;;;;;;;;;;;;;;5054933;28;19916;-76
2021/11/18 14:52:49;;;;;;;;;;;;;;;;;;5055820;28;20271;-76
2021/11/18 14:55:20;;;;;;;;;;;;;;;;;;5055652;28;19998;-76
2021/11/18 14:57:54;;;;;;;;;;;;;;;;;;5055763;28;19990;-75
2021/11/18 15:00:22;;;;;;;;;;;;;;;;;;5055519;28;19956;-75
2021/11/18 15:02:47;;;;;;;;;;;;;;;;;;5055246;28;19912;-75
2021/11/18 15:05:13;;;;;;;;;;;;;;;;;;5055605;28;19920;-75
2021/11/18 15:07:38;;;;;;;;;;;;;;;;;;5053341;28;19912;-75
2021/11/18 15:10:12;;;;;;;;;;;;;;;;;;5055350;28;19946;-75
2021/11/18 15:12:38;;;;;;;;;;;;;;;;;;5053851;28;19912;-75
2021/11/18 15:15:05;;;;;;;;;;;;;;;;;;5055103;28;19915;-75
2021/11/18 15:17:30;;;;;;;;;;;;;;;;;;5055115;28;20011;-75
2021/11/18 15:19:56;;;;;;;;;;;;;;;;;;5054877;28;19956;-75
2021/11/18 15:22:24;;;;;;;;;;;;;;;;;;5055397;28;19919;-75
2021/11/18 15:24:52;;;;;;;;;;;;;;;;;;5054969;28;19912;-75
2021/11/18 15:27:18;;;;;;;;;;;;;;;;;;5054327;28;19920;-75
2021/11/18 15:29:44;;;;;;;;;;;;;;;;;;5055229;28;20286;-75
2021/11/18 15:32:12;;;;;;;;;;;;;;;;;;5053761;28;19920;-75
2021/11/18 15:34:38;;;;;;;;;;;;;;;;;;5054884;28;19919;-75
2021/11/18 15:37:03;;;;;;;;;;;;;;;;;;5053604;28;19912;-75
2021/11/18 15:39:29;;;;;;;;;;;;;;;;;;5054942;28;20366;-75
2021/11/18 15:41:57;;;;;;;;;;;;;;;;;;5054678;28;20271;-75
2021/11/18 15:44:23;;;;;;;;;;;;;;;;;;5053244;28;20045;-75
2021/11/18 15:46:50;;;;;;;;;;;;;;;;;;5054493;28;19919;-74
2021/11/18 15:49:18;;;;;;;;;;;;;;;;;;5053858;28;19999;-74
2021/11/18 15:51:44;;;;;;;;;;;;;;;;;;5054476;28;19913;-77
2021/11/18 15:54:10;;;;;;;;;;;;;;;;;;5054591;28;20454;-76
2021/11/18 15:56:37;;;;;;;;;;;;;;;;;;5054407;28;19919;-78
2021/11/18 15:59:03;;;;;;;;;;;;;;;;;;5054686;28;19960;-77
2021/11/18 16:01:42;;;;;;;;;;;;;;;;;;5055113;28;20324;-78
2021/11/18 16:04:09;;;;;;;;;;;;;;;;;;5054169;28;20282;-77
2021/11/18 16:06:35;;;;;;;;;;;;;;;;;;5054535;28;19959;-76
2021/11/18 16:09:02;;;;;;;;;;;;;;;;;;5054372;28;19916;-76
2021/11/18 16:11:32;;;;;;;;;;;;;;;;;;5054356;28;20366;-76
2021/11/18 16:14:06;;;;;;;;;;;;;;;;;;5054309;28;19912;-76
2021/11/18 16:16:32;;;;;;;;;;;;;;;;;;5054293;28;19920;-76
2021/11/18 16:18:58;;;;;;;;;;;;;;;;;;5053978;28;20274;-76
2021/11/18 16:21:27;;;;;;;;;;;;;;;;;;5048899;28;20330;-76
2021/11/18 16:23:53;;;;;;;;;;;;;;;;;;5034019;28;20255;-76
2021/11/18 16:26:20;;;;;;;;;;;;;;;;;;5035438;28;20011;-76
2021/11/18 16:28:49;;;;;;;;;;;;;;;;;;5053909;28;19912;-76
2021/11/18 16:31:14;;;;;;;;;;;;;;;;;;5054102;28;19913;-75
2021/11/18 16:33:39;;;;;;;;;;;;;;;;;;5053870;28;20420;-76
2021/11/18 16:36:05;;;;;;;;;;;;;;;;;;5053183;28;19913;-76
2021/11/18 16:38:32;;;;;;;;;;;;;;;;;;5052600;28;19921;-76
2021/11/18 16:41:08;;;;;;;;;;;;;;;;;;5053165;28;19913;-75
2021/11/18 16:43:33;;;;;;;;;;;;;;;;;;5051563;28;19913;-78
2021/11/18 16:45:58;;;;;;;;;;;;;;;;;;5052472;28;19966;-77
2021/11/18 16:48:24;;;;;;;;;;;;;;;;;;5053689;28;19963;-73
2021/11/18 16:50:58;;;;;;;;;;;;;;;;;;5052709;28;19913;-78
2021/11/18 16:53:24;;;;;;;;;;;;;;;;;;5055069;28;19912;-78
2021/11/18 16:55:52;;;;;;;;;;;;;;;;;;5055305;28;19913;-79
2021/11/18 16:58:18;;;;;;;;;;;;;;;;;;5055889;28;19917;-78
2021/11/18 17:01:04;;;;;;;;;;;;;;;;;;5055564;28;19913;-77
2021/11/18 17:03:30;;;;;;;;;;;;;;;;;;5046481;28;19913;-78